ANA662 RJFU-RJTT
Flight info
| Callsign | ANA662 |
|---|---|
| Flight time | 1h 16m |
| Altitude | 39000 |
| Route | OOITA Y23 ARTIC Y71 XAC |
| Aircraft | B772/H-SDFLOVE1E2E3GHIJ3J5J6M1M2RWXYP1P2/LB1D1 |
Departure
| Time | 2026-05-01 09:48 |
|---|---|
| Airport | Nagasaki Airport (RJFU) |
Arrival
| Time | 2026-05-01 11:04 |
|---|---|
| Airport | Tokyo Haneda International Airport (RJTT) |
| Time | Latitude | Longitude | Altitude | Speed | Heading |
|---|---|---|---|---|---|
| 2026-05-01 09:38 | 32.91372 | 129.92181 | 23 ft | 0 kts | 48° |
| 2026-05-01 09:40 | 32.91366 | 129.92172 | 27 ft | 4 kts | 48° |
| 2026-05-01 09:41 | 32.91348 | 129.92149 | 26 ft | 4 kts | 48° |
| 2026-05-01 09:41 | 32.91316 | 129.92106 | 28 ft | 4 kts | 48° |
| 2026-05-01 09:41 | 32.91300 | 129.92084 | 27 ft | 4 kts | 65° |
| 2026-05-01 09:42 | 32.91296 | 129.92060 | 27 ft | 4 kts | 107° |
| 2026-05-01 09:42 | 32.91307 | 129.92035 | 27 ft | 4 kts | 134° |
| 2026-05-01 09:42 | 32.91323 | 129.92017 | 26 ft | 36 kts | 138° |
| 2026-05-01 09:44 | 32.91322 | 129.92018 | 26 ft | 2 kts | 138° |
| 2026-05-01 09:44 | 32.91278 | 129.92067 | 27 ft | 11 kts | 137° |
| 2026-05-01 09:45 | 32.91215 | 129.92134 | 25 ft | 14 kts | 138° |
| 2026-05-01 09:45 | 32.91045 | 129.92318 | 27 ft | 19 kts | 137° |
| 2026-05-01 09:45 | 32.90943 | 129.92426 | 28 ft | 17 kts | 138° |
| 2026-05-01 09:46 | 32.90870 | 129.92505 | 28 ft | 13 kts | 139° |
| 2026-05-01 09:46 | 32.90795 | 129.92525 | 24 ft | 11 kts | 204° |
| 2026-05-01 09:46 | 32.90737 | 129.92457 | 29 ft | 12 kts | 229° |
| 2026-05-01 09:46 | 32.90739 | 129.92373 | 29 ft | 11 kts | 309° |
| 2026-05-01 09:47 | 32.90763 | 129.92343 | 26 ft | 0 kts | 316° |
| 2026-05-01 09:47 | 32.90849 | 129.92251 | 28 ft | 47 kts | 320° |
| 2026-05-01 09:47 | 32.91307 | 129.91757 | 19 ft | 128 kts | 317° |
| 2026-05-01 09:48 | 32.92048 | 129.90957 | 580 ft | 143 kts | 312° |
| 2026-05-01 09:48 | 32.92772 | 129.90157 | 1540 ft | 144 kts | 314° |
| 2026-05-01 09:48 | 32.93534 | 129.89339 | 2418 ft | 154 kts | 315° |
| 2026-05-01 09:48 | 32.94410 | 129.88402 | 3032 ft | 185 kts | 316° |
| 2026-05-01 09:49 | 32.95446 | 129.87298 | 3314 ft | 217 kts | 317° |
| 2026-05-01 09:49 | 32.96619 | 129.86052 | 3817 ft | 231 kts | 317° |
| 2026-05-01 09:49 | 32.97845 | 129.84749 | 4472 ft | 241 kts | 317° |
| 2026-05-01 09:49 | 32.99114 | 129.83399 | 5214 ft | 247 kts | 318° |
| 2026-05-01 09:50 | 33.00443 | 129.82132 | 5972 ft | 246 kts | 331° |
| 2026-05-01 09:50 | 33.02121 | 129.81622 | 6707 ft | 255 kts | 357° |
| 2026-05-01 09:50 | 33.03883 | 129.82022 | 7500 ft | 263 kts | 17° |
| 2026-05-01 09:50 | 33.05437 | 129.83208 | 8295 ft | 271 kts | 39° |
| 2026-05-01 09:51 | 33.06725 | 129.84903 | 8958 ft | 279 kts | 43° |
| 2026-05-01 09:51 | 33.07988 | 129.86670 | 9694 ft | 281 kts | 48° |
| 2026-05-01 09:51 | 33.08771 | 129.88883 | 10006 ft | 302 kts | 74° |
| 2026-05-01 09:51 | 33.09009 | 129.91437 | 10185 ft | 322 kts | 79° |
| 2026-05-01 09:52 | 33.09186 | 129.94212 | 10368 ft | 349 kts | 81° |
| 2026-05-01 09:52 | 33.09359 | 129.97198 | 10736 ft | 368 kts | 81° |
| 2026-05-01 09:52 | 33.09548 | 130.00295 | 11338 ft | 381 kts | 81° |
| 2026-05-01 09:52 | 33.09755 | 130.03445 | 12103 ft | 390 kts | 81° |
| 2026-05-01 09:53 | 33.09982 | 130.06691 | 12970 ft | 397 kts | 81° |
| 2026-05-01 09:53 | 33.10226 | 130.10002 | 13799 ft | 405 kts | 80° |
| 2026-05-01 09:53 | 33.10485 | 130.13378 | 14528 ft | 412 kts | 80° |
| 2026-05-01 09:53 | 33.10753 | 130.16809 | 15300 ft | 418 kts | 80° |
| 2026-05-01 09:54 | 33.11027 | 130.20282 | 16068 ft | 424 kts | 80° |
| 2026-05-01 09:54 | 33.11307 | 130.23814 | 16809 ft | 431 kts | 80° |
| 2026-05-01 09:54 | 33.11591 | 130.27399 | 17509 ft | 438 kts | 80° |
| 2026-05-01 09:54 | 33.11879 | 130.31042 | 18210 ft | 444 kts | 80° |
| 2026-05-01 09:55 | 33.12170 | 130.34740 | 18819 ft | 451 kts | 80° |
| 2026-05-01 09:55 | 33.12462 | 130.38480 | 19421 ft | 457 kts | 80° |
| 2026-05-01 09:55 | 33.12758 | 130.42282 | 20022 ft | 462 kts | 79° |
| 2026-05-01 09:55 | 33.13057 | 130.46124 | 20601 ft | 468 kts | 79° |
| 2026-05-01 09:56 | 33.13358 | 130.50016 | 21192 ft | 474 kts | 79° |
| 2026-05-01 09:56 | 33.13661 | 130.53959 | 21778 ft | 480 kts | 79° |
| 2026-05-01 09:56 | 33.13864 | 130.56602 | 22176 ft | 484 kts | 78° |
| 2026-05-01 09:56 | 33.14276 | 130.61990 | 22963 ft | 491 kts | 78° |
| 2026-05-01 09:57 | 33.14586 | 130.66067 | 23565 ft | 496 kts | 78° |
| 2026-05-01 09:57 | 33.14793 | 130.68796 | 23884 ft | 500 kts | 78° |
| 2026-05-01 09:57 | 33.15104 | 130.72942 | 24386 ft | 504 kts | 78° |
| 2026-05-01 09:57 | 33.15418 | 130.77134 | 24880 ft | 509 kts | 78° |
| 2026-05-01 09:58 | 33.15739 | 130.81366 | 25324 ft | 514 kts | 78° |
| 2026-05-01 09:58 | 33.16051 | 130.85584 | 25776 ft | 519 kts | 78° |
| 2026-05-01 09:58 | 33.16372 | 130.89947 | 26207 ft | 524 kts | 78° |
| 2026-05-01 09:58 | 33.16688 | 130.94300 | 26604 ft | 528 kts | 78° |
| 2026-05-01 09:59 | 33.17011 | 130.98681 | 27021 ft | 531 kts | 78° |
| 2026-05-01 09:59 | 33.17500 | 131.03041 | 27465 ft | 529 kts | 71° |
| 2026-05-01 09:59 | 33.18346 | 131.07293 | 27905 ft | 525 kts | 64° |
| 2026-05-01 09:59 | 33.19427 | 131.11465 | 28292 ft | 527 kts | 63° |
| 2026-05-01 10:00 | 33.20539 | 131.15660 | 28691 ft | 531 kts | 63° |
| 2026-05-01 10:00 | 33.21653 | 131.19877 | 29085 ft | 535 kts | 63° |
| 2026-05-01 10:00 | 33.22764 | 131.24129 | 29469 ft | 538 kts | 63° |
| 2026-05-01 10:00 | 33.23866 | 131.28413 | 29852 ft | 542 kts | 63° |
| 2026-05-01 10:01 | 33.24965 | 131.32732 | 30185 ft | 544 kts | 64° |
| 2026-05-01 10:01 | 33.26058 | 131.37069 | 30504 ft | 547 kts | 64° |
| 2026-05-01 10:01 | 33.27152 | 131.41429 | 30827 ft | 549 kts | 64° |
| 2026-05-01 10:01 | 33.28249 | 131.45807 | 31103 ft | 551 kts | 64° |
| 2026-05-01 10:02 | 33.29350 | 131.50207 | 31362 ft | 554 kts | 64° |
| 2026-05-01 10:02 | 33.30456 | 131.54636 | 31622 ft | 556 kts | 64° |
| 2026-05-01 10:02 | 33.31566 | 131.59078 | 31867 ft | 558 kts | 64° |
| 2026-05-01 10:02 | 33.32677 | 131.63533 | 32104 ft | 560 kts | 64° |
| 2026-05-01 10:03 | 33.33789 | 131.67993 | 32335 ft | 562 kts | 64° |
| 2026-05-01 10:03 | 33.34908 | 131.72487 | 32563 ft | 564 kts | 64° |
| 2026-05-01 10:03 | 33.36027 | 131.76989 | 32818 ft | 565 kts | 64° |
| 2026-05-01 10:03 | 33.37148 | 131.81513 | 33132 ft | 565 kts | 64° |
| 2026-05-01 10:04 | 33.38246 | 131.85954 | 33462 ft | 565 kts | 64° |
| 2026-05-01 10:04 | 33.39359 | 131.90464 | 33809 ft | 564 kts | 64° |
| 2026-05-01 10:04 | 33.40468 | 131.94964 | 34100 ft | 564 kts | 64° |
| 2026-05-01 10:04 | 33.41573 | 131.99457 | 34425 ft | 562 kts | 64° |
| 2026-05-01 10:05 | 33.42675 | 132.03942 | 34771 ft | 560 kts | 64° |
| 2026-05-01 10:05 | 33.43791 | 132.08472 | 35117 ft | 558 kts | 64° |
| 2026-05-01 10:05 | 33.44867 | 132.12867 | 35461 ft | 556 kts | 65° |
| 2026-05-01 10:05 | 33.45950 | 132.17305 | 35798 ft | 555 kts | 65° |
| 2026-05-01 10:06 | 33.47029 | 132.21730 | 36101 ft | 553 kts | 65° |
| 2026-05-01 10:06 | 33.48108 | 132.26154 | 36369 ft | 553 kts | 65° |
| 2026-05-01 10:06 | 33.49184 | 132.30575 | 36672 ft | 552 kts | 65° |
| 2026-05-01 10:06 | 33.50256 | 132.34982 | 36965 ft | 551 kts | 66° |
| 2026-05-01 10:07 | 33.51327 | 132.39393 | 37262 ft | 550 kts | 66° |
| 2026-05-01 10:07 | 33.52392 | 132.43791 | 37519 ft | 549 kts | 66° |
| 2026-05-01 10:07 | 33.53455 | 132.48192 | 37653 ft | 549 kts | 66° |
| 2026-05-01 10:07 | 33.54518 | 132.52586 | 37848 ft | 548 kts | 67° |
| 2026-05-01 10:08 | 33.56627 | 132.61353 | 38371 ft | 547 kts | 68° |
| 2026-05-01 10:08 | 33.57677 | 132.65730 | 38612 ft | 545 kts | 68° |
| 2026-05-01 10:08 | 33.58724 | 132.70097 | 38779 ft | 546 kts | 68° |
| 2026-05-01 10:09 | 33.59773 | 132.74473 | 38802 ft | 546 kts | 68° |
| 2026-05-01 10:09 | 33.61857 | 132.83206 | 38859 ft | 542 kts | 69° |
| 2026-05-01 10:10 | 33.63923 | 132.91900 | 38845 ft | 540 kts | 69° |
| 2026-05-01 10:10 | 33.67000 | 133.04887 | 38835 ft | 538 kts | 69° |
| 2026-05-01 10:11 | 33.69037 | 133.13526 | 38821 ft | 538 kts | 69° |
| 2026-05-01 10:11 | 33.71073 | 133.22184 | 38823 ft | 538 kts | 69° |
| 2026-05-01 10:12 | 33.73090 | 133.30792 | 38819 ft | 539 kts | 70° |
| 2026-05-01 10:13 | 33.76152 | 133.43918 | 38795 ft | 544 kts | 70° |
| 2026-05-01 10:13 | 33.78188 | 133.52691 | 38791 ft | 545 kts | 71° |
| 2026-05-01 10:14 | 33.81219 | 133.65811 | 38795 ft | 546 kts | 71° |
| 2026-05-01 10:14 | 33.83246 | 133.74617 | 38803 ft | 546 kts | 71° |
| 2026-05-01 10:15 | 33.85270 | 133.83442 | 38806 ft | 547 kts | 72° |
| 2026-05-01 10:15 | 33.87284 | 133.92259 | 38799 ft | 546 kts | 72° |
| 2026-05-01 10:16 | 33.89292 | 134.01082 | 38791 ft | 546 kts | 72° |
| 2026-05-01 10:17 | 33.92291 | 134.14316 | 38769 ft | 546 kts | 72° |
| 2026-05-01 10:17 | 33.95277 | 134.27542 | 38773 ft | 545 kts | 72° |
| 2026-05-01 10:18 | 33.98316 | 134.40758 | 38767 ft | 546 kts | 72° |
| 2026-05-01 10:19 | 34.00345 | 134.49594 | 38745 ft | 548 kts | 72° |
| 2026-05-01 10:19 | 34.02354 | 134.58400 | 38751 ft | 549 kts | 72° |
| 2026-05-01 10:20 | 34.05381 | 134.71748 | 38746 ft | 551 kts | 72° |
| 2026-05-01 10:20 | 34.07398 | 134.80681 | 38760 ft | 552 kts | 73° |
| 2026-05-01 10:21 | 34.10416 | 134.94102 | 38773 ft | 553 kts | 73° |
| 2026-05-01 10:22 | 34.13400 | 135.07555 | 38765 ft | 553 kts | 76° |
| 2026-05-01 10:23 | 34.15692 | 135.21172 | 38742 ft | 550 kts | 79° |
| 2026-05-01 10:23 | 34.17783 | 135.34747 | 38744 ft | 547 kts | 79° |
| 2026-05-01 10:24 | 34.20682 | 135.52694 | 38728 ft | 543 kts | 79° |
| 2026-05-01 10:25 | 34.23560 | 135.70562 | 38716 ft | 541 kts | 80° |
| 2026-05-01 10:26 | 34.24981 | 135.79489 | 38714 ft | 541 kts | 80° |
| 2026-05-01 10:27 | 34.27812 | 135.97405 | 38694 ft | 544 kts | 80° |
| 2026-05-01 10:28 | 34.29924 | 136.10878 | 38676 ft | 549 kts | 80° |
| 2026-05-01 10:28 | 34.32056 | 136.24577 | 38663 ft | 556 kts | 81° |
| 2026-05-01 10:29 | 34.34198 | 136.38447 | 38659 ft | 563 kts | 81° |
| 2026-05-01 10:30 | 34.37071 | 136.57222 | 38649 ft | 570 kts | 81° |
| 2026-05-01 10:31 | 34.39936 | 136.76149 | 38644 ft | 572 kts | 82° |
| 2026-05-01 10:32 | 34.42068 | 136.90381 | 38643 ft | 572 kts | 82° |
| 2026-05-01 10:33 | 34.44888 | 137.09370 | 38637 ft | 573 kts | 82° |
| 2026-05-01 10:34 | 34.46986 | 137.23641 | 38622 ft | 574 kts | 82° |
| 2026-05-01 10:34 | 34.48376 | 137.33162 | 38629 ft | 574 kts | 82° |
| 2026-05-01 10:35 | 34.50452 | 137.47478 | 38628 ft | 575 kts | 82° |
| 2026-05-01 10:35 | 34.51817 | 137.56968 | 38629 ft | 576 kts | 82° |
| 2026-05-01 10:36 | 34.53869 | 137.71323 | 38621 ft | 577 kts | 82° |
| 2026-05-01 10:37 | 34.55230 | 137.80918 | 38608 ft | 577 kts | 83° |
| 2026-05-01 10:37 | 34.57261 | 137.95340 | 38597 ft | 579 kts | 83° |
| 2026-05-01 10:38 | 34.58606 | 138.04959 | 38407 ft | 576 kts | 83° |
| 2026-05-01 10:38 | 34.59271 | 138.09726 | 37917 ft | 569 kts | 83° |
| 2026-05-01 10:38 | 34.59930 | 138.14473 | 36898 ft | 573 kts | 83° |
| 2026-05-01 10:39 | 34.60591 | 138.19264 | 35742 ft | 579 kts | 83° |
| 2026-05-01 10:39 | 34.61257 | 138.24106 | 34602 ft | 585 kts | 83° |
| 2026-05-01 10:39 | 34.61927 | 138.28992 | 33494 ft | 589 kts | 83° |
| 2026-05-01 10:39 | 34.62602 | 138.33917 | 32368 ft | 591 kts | 83° |
| 2026-05-01 10:40 | 34.63272 | 138.38811 | 31567 ft | 585 kts | 83° |
| 2026-05-01 10:40 | 34.63935 | 138.43651 | 30964 ft | 576 kts | 83° |
| 2026-05-01 10:40 | 34.64585 | 138.48418 | 30405 ft | 568 kts | 83° |
| 2026-05-01 10:40 | 34.65224 | 138.53125 | 29805 ft | 562 kts | 83° |
| 2026-05-01 10:41 | 34.65853 | 138.57788 | 29068 ft | 557 kts | 83° |
| 2026-05-01 10:41 | 34.66475 | 138.62414 | 28402 ft | 552 kts | 83° |
| 2026-05-01 10:41 | 34.67695 | 138.71528 | 27204 ft | 540 kts | 83° |
| 2026-05-01 10:42 | 34.68091 | 138.74498 | 26802 ft | 536 kts | 83° |
| 2026-05-01 10:42 | 34.68682 | 138.78938 | 26225 ft | 530 kts | 83° |
| 2026-05-01 10:42 | 34.69266 | 138.83336 | 25655 ft | 525 kts | 83° |
| 2026-05-01 10:42 | 34.69845 | 138.87708 | 25073 ft | 521 kts | 83° |
| 2026-05-01 10:43 | 34.70418 | 138.92043 | 24500 ft | 517 kts | 83° |
| 2026-05-01 10:43 | 34.70982 | 138.96329 | 24021 ft | 511 kts | 83° |
| 2026-05-01 10:43 | 34.71450 | 139.00569 | 23642 ft | 500 kts | 85° |
| 2026-05-01 10:43 | 34.72026 | 139.04708 | 23292 ft | 493 kts | 79° |
| 2026-05-01 10:44 | 34.72782 | 139.08750 | 22818 ft | 488 kts | 78° |
| 2026-05-01 10:44 | 34.73576 | 139.12730 | 22326 ft | 483 kts | 77° |
| 2026-05-01 10:44 | 34.74366 | 139.16680 | 21844 ft | 478 kts | 78° |
| 2026-05-01 10:44 | 34.75131 | 139.20594 | 21380 ft | 473 kts | 78° |
| 2026-05-01 10:45 | 34.75869 | 139.24469 | 20918 ft | 468 kts | 78° |
| 2026-05-01 10:45 | 34.76585 | 139.28307 | 20485 ft | 463 kts | 78° |
| 2026-05-01 10:45 | 34.77284 | 139.32098 | 20063 ft | 458 kts | 78° |
| 2026-05-01 10:45 | 34.77975 | 139.35866 | 19640 ft | 453 kts | 78° |
| 2026-05-01 10:46 | 34.78656 | 139.39582 | 19214 ft | 449 kts | 78° |
| 2026-05-01 10:46 | 34.79332 | 139.43274 | 18803 ft | 444 kts | 78° |
| 2026-05-01 10:46 | 34.80168 | 139.46859 | 18342 ft | 439 kts | 68° |
| 2026-05-01 10:46 | 34.81523 | 139.50118 | 17914 ft | 435 kts | 56° |
| 2026-05-01 10:47 | 34.83294 | 139.53067 | 17498 ft | 428 kts | 47° |
| 2026-05-01 10:47 | 34.85349 | 139.55703 | 17007 ft | 421 kts | 43° |
| 2026-05-01 10:47 | 34.87394 | 139.58242 | 16504 ft | 419 kts | 43° |
| 2026-05-01 10:47 | 34.89428 | 139.60770 | 16071 ft | 416 kts | 44° |
| 2026-05-01 10:48 | 34.91436 | 139.63281 | 15638 ft | 412 kts | 44° |
| 2026-05-01 10:48 | 34.93421 | 139.65777 | 15242 ft | 408 kts | 44° |
| 2026-05-01 10:48 | 34.95357 | 139.68223 | 14844 ft | 405 kts | 44° |
| 2026-05-01 10:48 | 34.97306 | 139.70692 | 14418 ft | 402 kts | 44° |
| 2026-05-01 10:49 | 34.99236 | 139.73142 | 13998 ft | 399 kts | 44° |
| 2026-05-01 10:49 | 35.01151 | 139.75576 | 13622 ft | 396 kts | 44° |
| 2026-05-01 10:49 | 35.03045 | 139.77987 | 13246 ft | 392 kts | 44° |
| 2026-05-01 10:49 | 35.04926 | 139.80382 | 12802 ft | 389 kts | 44° |
| 2026-05-01 10:50 | 35.06794 | 139.82760 | 12341 ft | 388 kts | 44° |
| 2026-05-01 10:50 | 35.08660 | 139.85138 | 11891 ft | 386 kts | 45° |
| 2026-05-01 10:50 | 35.10585 | 139.87384 | 11456 ft | 383 kts | 38° |
| 2026-05-01 10:50 | 35.12737 | 139.89275 | 11035 ft | 379 kts | 30° |
| 2026-05-01 10:51 | 35.14972 | 139.90972 | 10597 ft | 377 kts | 30° |
| 2026-05-01 10:51 | 35.17201 | 139.92655 | 10174 ft | 376 kts | 30° |
| 2026-05-01 10:51 | 35.19415 | 139.94334 | 9789 ft | 374 kts | 30° |
| 2026-05-01 10:51 | 35.21594 | 139.95994 | 9705 ft | 363 kts | 30° |
| 2026-05-01 10:52 | 35.23699 | 139.97607 | 9619 ft | 352 kts | 31° |
| 2026-05-01 10:52 | 35.25736 | 139.99173 | 9535 ft | 341 kts | 31° |
| 2026-05-01 10:52 | 35.27713 | 140.00694 | 9479 ft | 330 kts | 31° |
| 2026-05-01 10:52 | 35.29630 | 140.02171 | 9401 ft | 321 kts | 31° |
| 2026-05-01 10:53 | 35.31492 | 140.03609 | 9305 ft | 312 kts | 31° |
| 2026-05-01 10:53 | 35.33307 | 140.05010 | 9184 ft | 306 kts | 31° |
| 2026-05-01 10:53 | 35.35097 | 140.06392 | 8973 ft | 303 kts | 31° |
| 2026-05-01 10:53 | 35.36873 | 140.07765 | 8697 ft | 302 kts | 31° |
| 2026-05-01 10:54 | 35.38645 | 140.09134 | 8402 ft | 301 kts | 31° |
| 2026-05-01 10:54 | 35.40406 | 140.10496 | 8146 ft | 298 kts | 31° |
| 2026-05-01 10:54 | 35.42156 | 140.11852 | 7887 ft | 296 kts | 31° |
| 2026-05-01 10:54 | 35.43891 | 140.13197 | 7664 ft | 294 kts | 31° |
| 2026-05-01 10:55 | 35.45620 | 140.14537 | 7431 ft | 293 kts | 32° |
| 2026-05-01 10:55 | 35.47341 | 140.15872 | 7218 ft | 292 kts | 32° |
| 2026-05-01 10:55 | 35.49049 | 140.17196 | 7019 ft | 289 kts | 32° |
| 2026-05-01 10:55 | 35.50742 | 140.18510 | 6966 ft | 286 kts | 32° |
| 2026-05-01 10:56 | 35.52460 | 140.19701 | 6906 ft | 279 kts | 17° |
| 2026-05-01 10:56 | 35.54329 | 140.19984 | 6799 ft | 267 kts | 349° |
| 2026-05-01 10:56 | 35.56099 | 140.19477 | 6598 ft | 259 kts | 341° |
| 2026-05-01 10:56 | 35.57797 | 140.18813 | 6300 ft | 251 kts | 328° |
| 2026-05-01 10:57 | 35.59062 | 140.17473 | 6102 ft | 236 kts | 301° |
| 2026-05-01 10:57 | 35.59907 | 140.15770 | 5910 ft | 231 kts | 295° |
| 2026-05-01 10:57 | 35.60583 | 140.14044 | 5636 ft | 221 kts | 277° |
| 2026-05-01 10:57 | 35.60624 | 140.12224 | 5437 ft | 206 kts | 264° |
| 2026-05-01 10:58 | 35.60588 | 140.10478 | 5214 ft | 203 kts | 265° |
| 2026-05-01 10:58 | 35.60571 | 140.08761 | 4999 ft | 200 kts | 265° |
| 2026-05-01 10:58 | 35.60553 | 140.07094 | 4776 ft | 196 kts | 265° |
| 2026-05-01 10:58 | 35.60538 | 140.05423 | 4501 ft | 195 kts | 265° |
| 2026-05-01 10:59 | 35.60526 | 140.03765 | 4230 ft | 194 kts | 265° |
| 2026-05-01 10:59 | 35.60514 | 140.02115 | 3966 ft | 191 kts | 265° |
| 2026-05-01 10:59 | 35.60504 | 140.00509 | 3712 ft | 187 kts | 265° |
| 2026-05-01 10:59 | 35.60494 | 139.98925 | 3472 ft | 184 kts | 265° |
| 2026-05-01 11:00 | 35.60483 | 139.97355 | 3232 ft | 187 kts | 265° |
| 2026-05-01 11:00 | 35.60472 | 139.95735 | 3000 ft | 189 kts | 265° |
| 2026-05-01 11:00 | 35.60462 | 139.94126 | 2747 ft | 188 kts | 265° |
| 2026-05-01 11:00 | 35.60452 | 139.92520 | 2495 ft | 188 kts | 266° |
| 2026-05-01 11:01 | 35.60442 | 139.90920 | 2232 ft | 188 kts | 266° |
| 2026-05-01 11:01 | 35.60432 | 139.89312 | 2001 ft | 188 kts | 266° |
| 2026-05-01 11:01 | 35.60421 | 139.87728 | 1803 ft | 182 kts | 267° |
| 2026-05-01 11:01 | 35.60411 | 139.86179 | 1583 ft | 183 kts | 267° |
| 2026-05-01 11:02 | 35.60399 | 139.84652 | 1294 ft | 171 kts | 269° |
| 2026-05-01 11:02 | 35.60393 | 139.83238 | 912 ft | 162 kts | 269° |
| 2026-05-01 11:02 | 35.60279 | 139.81900 | 691 ft | 158 kts | 253° |
| 2026-05-01 11:02 | 35.59815 | 139.80688 | 536 ft | 155 kts | 235° |
| 2026-05-01 11:03 | 35.59065 | 139.79741 | 280 ft | 155 kts | 218° |
| 2026-05-01 11:03 | 35.58216 | 139.78980 | 397 ft | 146 kts | 215° |
| 2026-05-01 11:03 | 35.57427 | 139.78306 | 329 ft | 130 kts | 215° |
| 2026-05-01 11:03 | 35.56738 | 139.77709 | 90 ft | 110 kts | 216° |
| 2026-05-01 11:04 | 35.56185 | 139.77226 | 38 ft | 80 kts | 215° |
| 2026-05-01 11:04 | 35.55851 | 139.76941 | 31 ft | 36 kts | 215° |
| 2026-05-01 11:04 | 35.55703 | 139.76816 | 31 ft | 25 kts | 214° |
| 2026-05-01 11:04 | 35.55562 | 139.76698 | 31 ft | 23 kts | 212° |
| 2026-05-01 11:05 | 35.55420 | 139.76634 | 29 ft | 20 kts | 188° |
| 2026-05-01 11:05 | 35.55330 | 139.76623 | 27 ft | 10 kts | 177° |
| 2026-05-01 11:05 | 35.55277 | 139.76675 | 26 ft | 10 kts | 108° |
| 2026-05-01 11:05 | 35.55306 | 139.76748 | 28 ft | 10 kts | 33° |
| 2026-05-01 11:06 | 35.55367 | 139.76796 | 28 ft | 10 kts | 35° |
| 2026-05-01 11:06 | 35.55426 | 139.76847 | 29 ft | 10 kts | 35° |
| 2026-05-01 11:06 | 35.55485 | 139.76898 | 29 ft | 10 kts | 34° |
| 2026-05-01 11:07 | 35.55604 | 139.76999 | 28 ft | 10 kts | 34° |
| 2026-05-01 11:07 | 35.55664 | 139.77049 | 28 ft | 10 kts | 34° |
| 2026-05-01 11:07 | 35.55723 | 139.77101 | 30 ft | 11 kts | 35° |
| 2026-05-01 11:07 | 35.55822 | 139.77186 | 27 ft | 20 kts | 35° |
| 2026-05-01 11:08 | 35.55924 | 139.77288 | 29 ft | 19 kts | 54° |
| 2026-05-01 11:08 | 35.55992 | 139.77429 | 27 ft | 20 kts | 59° |
| 2026-05-01 11:08 | 35.56133 | 139.77725 | 29 ft | 20 kts | 60° |
| 2026-05-01 11:09 | 35.56204 | 139.77874 | 30 ft | 20 kts | 60° |
| 2026-05-01 11:09 | 35.56274 | 139.78023 | 30 ft | 20 kts | 60° |
| 2026-05-01 11:09 | 35.56344 | 139.78171 | 30 ft | 20 kts | 60° |
| 2026-05-01 11:10 | 35.56415 | 139.78380 | 28 ft | 11 kts | 117° |
| 2026-05-01 11:10 | 35.56351 | 139.78441 | 28 ft | 13 kts | 148° |
| 2026-05-01 11:10 | 35.56259 | 139.78507 | 29 ft | 16 kts | 150° |
| 2026-05-01 11:10 | 35.56164 | 139.78574 | 28 ft | 16 kts | 150° |
| 2026-05-01 11:11 | 35.56068 | 139.78642 | 27 ft | 16 kts | 150° |
| 2026-05-01 11:11 | 35.55974 | 139.78710 | 27 ft | 16 kts | 149° |
| 2026-05-01 11:11 | 35.55879 | 139.78777 | 27 ft | 16 kts | 151° |
| 2026-05-01 11:11 | 35.55784 | 139.78844 | 28 ft | 16 kts | 150° |
| 2026-05-01 11:12 | 35.55689 | 139.78911 | 29 ft | 16 kts | 151° |
| 2026-05-01 11:12 | 35.55594 | 139.78978 | 30 ft | 16 kts | 150° |
| 2026-05-01 11:12 | 35.55499 | 139.79045 | 30 ft | 16 kts | 149° |
| 2026-05-01 11:12 | 35.55404 | 139.79113 | 31 ft | 16 kts | 149° |
| 2026-05-01 11:13 | 35.55312 | 139.79179 | 30 ft | 15 kts | 150° |
| 2026-05-01 11:13 | 35.55231 | 139.79237 | 31 ft | 12 kts | 149° |
| 2026-05-01 11:13 | 35.55167 | 139.79283 | 30 ft | 1 kts | 149° |
| 2026-05-01 11:14 | 35.55124 | 139.79309 | 29 ft | 9 kts | 165° |
| 2026-05-01 11:14 | 35.55066 | 139.79282 | 31 ft | 9 kts | 227° |
| 2026-05-01 11:14 | 35.55035 | 139.79213 | 32 ft | 9 kts | 255° |
| 2026-05-01 11:15 | 35.55059 | 139.79141 | 32 ft | 10 kts | 317° |
| 2026-05-01 11:15 | 35.55126 | 139.79088 | 32 ft | 11 kts | 329° |
| 2026-05-01 11:15 | 35.55180 | 139.79044 | 31 ft | 7 kts | 311° |
| 2026-05-01 11:15 | 35.55186 | 139.79001 | 31 ft | 5 kts | 257° |
| 2026-05-01 11:16 | 35.55171 | 139.78976 | 29 ft | 4 kts | 228° |
| 2026-05-01 11:16 | 35.55160 | 139.78956 | 32 ft | 0 kts | 238° |